Airfield :
LOGIN :

Register | Disclaimer

   EN    FR    IT 

 










Legend :    VFR   Marginal VFR   IFR   Intensive IFR   Very Intensive IFR
Visi :
Ceiling :
>= 8 km
>= 3000ft
5 to 8 km
1000 to 3000 ft
1500m to 5 km
500 to 1000 ft
800 to 1500m
200 to 500 ft
< 800m
< 200 ft
Symbols :   Thunderstorms  Fog  Heavy snow  Heavy precipitations  Wind > 20 kt
SIGMETs :     Misc.  Thunderstorms  Icing  Turbulence  Mountain Waves  Volcanic Ashes






- Airport Elevation : 376 ft


LHKE - Kecskemét

CURRENT METAR :
  • 170945Z 14012KT 110V180 CAVOK 14/09 Q1016 NOSIG RMK BLU

EXPIRED METARs :
  • 170915Z 14012KT CAVOK 14/09 Q1016 NOSIG RMK BLU
  • 170845Z 15010KT 110V190 CAVOK 13/09 Q1016 NOSIG RMK BLU
  • 170815Z 15010KT 120V190 CAVOK 13/08 Q1016 NOSIG RMK BLU
  • 170745Z 13008KT CAVOK 13/08 Q1016 NOSIG RMK BLU
  • 170715Z 12008KT CAVOK 12/08 Q1016 NOSIG RMK BLU

TAF TAF LHKE
Valid from the 17 at 09:00 until the 17 at 18:00 UTC


170815Z 1709/1718 12012KT CAVOK



MET'MAP, your aeronautical weather chart ! - Copyright ORBIFLY December 2007 - Disclaimer

ORBIFLY MET'MAP TEAM :

Programming & Development : Alexandra Zaïnal
Concept & Development : Baudouin d'Aumeries
Co-Development & Prog : Marc-Olivier Méhu
Technical & hardware support : Manuel Goepfert

Contact : metmap@orbifly.com




SOURCES & CREDITS :

   NOAA